Time;durP1;ratioP1;P1;durP2;ratioP2;P2;SDS_P1;SDS_P2;PMS_P1;PMS_P2;Temp;Humidity;BMP_temperature;BMP_pressure;BME280_temperature;BME280_humidity;BME280_pressure;Samples;Min_cycle;Max_cycle;Signal;HPM_P1;HPM_P2
2021/03/07 00:01:19;;;;;;;7.35;4.80;;;;;;;-2.90;66.34;99379.48;1805568;78;21630;-74
2021/03/07 00:03:49;;;;;;;6.50;4.47;;;;;;;-2.89;66.28;99381.66;1828157;78;21213;-72
2021/03/07 00:06:17;;;;;;;7.10;5.40;;;;;;;-2.88;66.28;99378.17;1819185;78;22463;-72
2021/03/07 00:08:44;;;;;;;6.55;5.62;;;;;;;-2.87;66.28;99377.27;1818922;78;20992;-71
2021/03/07 00:11:14;;;;;;;7.62;5.33;;;;;;;-2.87;66.22;99372.88;1816184;78;21075;-71
2021/03/07 00:13:50;;;;;;;6.42;4.80;;;;;;;-2.82;66.19;99371.57;1829537;78;20921;-72
2021/03/07 00:16:20;;;;;;;5.95;4.95;;;;;;;-2.80;65.87;99364.58;1828269;78;20989;-73
2021/03/07 00:18:49;;;;;;;5.75;4.50;;;;;;;-2.78;65.55;99365.00;1815914;78;21639;-74
2021/03/07 00:21:19;;;;;;;6.10;4.10;;;;;;;-2.76;65.51;99354.48;1826760;77;21430;-74
2021/03/07 00:23:48;;;;;;;9.08;4.75;;;;;;;-2.72;65.30;99358.88;1816755;78;21079;-73
2021/03/07 00:26:16;;;;;;;5.28;4.15;;;;;;;-2.68;65.26;99354.48;1782107;78;20938;-74
2021/03/07 00:28:45;;;;;;;6.58;4.25;;;;;;;-2.67;65.07;99346.59;1826428;78;20913;-73
2021/03/07 00:31:13;;;;;;;6.53;4.30;;;;;;;-2.66;65.02;99347.04;1824199;78;21654;-73
2021/03/07 00:33:51;;;;;;;7.28;4.35;;;;;;;-2.64;65.18;99343.09;1795428;78;20936;-73
2021/03/07 00:36:20;;;;;;;6.05;3.70;;;;;;;-2.61;65.26;99341.33;1818137;78;21655;-74
2021/03/07 00:38:48;;;;;;;5.53;4.03;;;;;;;-2.62;65.42;99339.56;1805156;78;20869;-73
2021/03/07 00:41:17;;;;;;;7.40;4.03;;;;;;;-2.63;65.02;99332.58;1821121;77;20917;-73
2021/03/07 00:43:45;;;;;;;4.90;3.80;;;;;;;-2.60;64.83;99334.30;1800937;78;21072;-74
2021/03/07 00:46:14;;;;;;;6.35;4.17;;;;;;;-2.61;65.01;99328.17;1804907;77;21003;-73
2021/03/07 00:48:42;;;;;;;4.95;3.22;;;;;;;-2.62;64.95;99318.97;1823384;78;20973;-73
2021/03/07 00:51:13;;;;;;;5.75;4.30;;;;;;;-2.62;64.79;99317.20;1820266;77;20953;-74
2021/03/07 00:53:41;;;;;;;4.45;3.62;;;;;;;-2.62;64.66;99310.62;1812148;78;21029;-74
2021/03/07 00:56:11;;;;;;;4.22;3.75;;;;;;;-2.64;64.54;99303.64;1814179;78;21293;-73
2021/03/07 00:58:43;;;;;;;4.42;3.12;;;;;;;-2.64;64.80;99301.88;1828610;78;20945;-74
2021/03/07 01:01:12;;;;;;;5.90;4.03;;;;;;;-2.64;64.73;99296.62;1820612;78;21012;-74
2021/03/07 01:03:43;;;;;;;4.72;3.45;;;;;;;-2.65;64.44;99293.58;1821549;78;21086;-74
2021/03/07 01:06:14;;;;;;;5.97;3.70;;;;;;;-2.65;64.32;99279.11;1755865;80;21666;-74
2021/03/07 01:08:45;;;;;;;4.00;3.45;;;;;;;-2.63;64.37;99281.73;1758252;80;21381;-74
2021/03/07 01:11:13;;;;;;;5.47;4.20;;;;;;;-2.65;64.51;99272.53;1820535;77;20941;-74
2021/03/07 01:13:42;;;;;;;5.25;4.10;;;;;;;-2.63;64.12;99261.56;1816195;78;21000;-73
2021/03/07 01:16:11;;;;;;;4.28;3.65;;;;;;;-2.62;63.92;99265.92;1808215;78;21095;-74
2021/03/07 01:18:42;;;;;;;5.58;3.77;;;;;;;-2.61;63.84;99270.31;1818312;78;21434;-73
2021/03/07 01:21:11;;;;;;;6.62;3.90;;;;;;;-2.59;64.04;99265.91;1817039;78;21200;-73
2021/03/07 01:23:40;;;;;;;5.60;3.58;;;;;;;-2.56;63.97;99258.47;1804990;78;20929;-74
2021/03/07 01:26:10;;;;;;;4.67;3.98;;;;;;;-2.55;63.74;99253.66;1804793;78;21020;-74
2021/03/07 01:28:39;;;;;;;6.12;4.17;;;;;;;-2.54;63.63;99247.48;1821597;78;21048;-74
2021/03/07 01:31:09;;;;;;;4.62;3.37;;;;;;;-2.52;63.62;99242.23;1805714;78;20961;-74
2021/03/07 01:33:38;;;;;;;7.35;4.28;;;;;;;-2.51;63.37;99245.30;1824300;78;21968;-73
2021/03/07 01:36:08;;;;;;;5.08;4.42;;;;;;;-2.50;63.26;99240.48;1816921;78;22183;-74
2021/03/07 01:38:36;;;;;;;6.10;3.62;;;;;;;-2.47;63.26;99241.34;1819416;78;21494;-74
2021/03/07 01:41:04;;;;;;;4.58;3.75;;;;;;;-2.47;63.32;99232.14;1827671;78;21612;-74
2021/03/07 01:43:35;;;;;;;4.40;3.53;;;;;;;-2.45;63.15;99234.31;1828503;78;21076;-74
2021/03/07 01:46:02;;;;;;;4.20;2.90;;;;;;;-2.44;63.30;99229.95;1791343;77;22521;-74
2021/03/07 01:48:33;;;;;;;3.58;2.83;;;;;;;-2.43;63.17;99224.68;1827822;78;21059;-74
2021/03/07 01:51:03;;;;;;;5.90;2.80;;;;;;;-2.42;63.14;99226.41;1812042;78;21004;-74
2021/03/07 01:53:33;;;;;;;5.85;3.55;;;;;;;-2.39;63.47;99225.53;1826768;78;21489;-74
2021/03/07 01:56:04;;;;;;;4.62;3.20;;;;;;;-2.38;63.04;99228.16;1809663;78;21533;-74
2021/03/07 01:58:33;;;;;;;4.67;3.08;;;;;;;-2.37;62.98;99226.39;1827020;78;22270;-73
2021/03/07 02:01:01;;;;;;;4.22;2.75;;;;;;;-2.35;62.98;99219.36;1788031;78;20999;-73
2021/03/07 02:03:34;;;;;;;4.97;3.05;;;;;;;-2.34;62.76;99215.86;1820285;78;33520;-74
2021/03/07 02:06:06;;;;;;;3.72;2.83;;;;;;;-2.31;62.26;99207.09;1822798;78;21040;-74
2021/03/07 02:08:36;;;;;;;4.10;2.62;;;;;;;-2.30;62.22;99197.88;1805522;78;20908;-73
2021/03/07 02:11:05;;;;;;;2.92;2.47;;;;;;;-2.29;62.22;99195.66;1814734;78;21365;-74
2021/03/07 02:13:39;;;;;;;3.35;2.87;;;;;;;-2.26;62.13;99195.64;1802112;78;21056;-73
2021/03/07 02:16:18;;;;;;;3.12;2.75;;;;;;;-2.26;62.03;99187.74;1807135;78;21056;-74
2021/03/07 02:18:50;;;;;;;4.33;3.30;;;;;;;-2.25;62.09;99193.91;1801293;78;21038;-75
2021/03/07 02:21:30;;;;;;;3.42;2.40;;;;;;;-2.24;62.40;99200.48;1822919;78;21493;-74
2021/03/07 02:24:13;;;;;;;5.60;3.05;;;;;;;-2.22;61.57;99203.97;1805846;78;20977;-73
2021/03/07 02:26:49;;;;;;;3.30;2.67;;;;;;;-2.21;62.01;99199.14;1796706;78;21195;-74
2021/03/07 02:29:21;;;;;;;3.50;2.67;;;;;;;-2.20;61.53;99198.24;1824123;78;21052;-74
2021/03/07 02:31:56;;;;;;;3.80;2.92;;;;;;;-2.20;61.32;99199.56;1805138;77;21135;-73
2021/03/07 02:34:30;;;;;;;4.67;2.87;;;;;;;-2.19;61.56;99196.51;1812070;78;21545;-74
2021/03/07 02:37:07;;;;;;;3.58;3.17;;;;;;;-2.17;61.48;99198.68;1814216;78;21404;-74
2021/03/07 02:39:38;;;;;;;4.30;3.15;;;;;;;-2.16;61.30;99195.17;1813349;77;21107;-75
2021/03/07 02:42:13;;;;;;;4.83;2.90;;;;;;;-2.15;61.63;99189.01;1805008;78;21505;-74
2021/03/07 02:44:47;;;;;;;3.72;3.25;;;;;;;-2.15;61.20;99192.09;1828088;78;21415;-73
2021/03/07 02:47:15;;;;;;;3.22;2.87;;;;;;;-2.13;60.99;99190.31;1816277;78;20916;-74
2021/03/07 02:49:46;;;;;;;3.27;2.80;;;;;;;-2.14;61.21;99188.14;1804010;78;21399;-73
2021/03/07 02:52:17;;;;;;;4.25;3.00;;;;;;;-2.13;61.00;99183.73;1775963;78;21024;-74
2021/03/07 02:54:46;;;;;;;3.80;2.52;;;;;;;-2.13;60.49;99175.84;1823105;77;21108;-74
2021/03/07 02:57:14;;;;;;;4.30;2.67;;;;;;;-2.12;60.71;99167.07;1774315;78;20913;-74
2021/03/07 02:59:43;;;;;;;5.80;3.30;;;;;;;-2.10;60.31;99169.24;1817458;78;20964;-74
2021/03/07 03:02:14;;;;;;;3.70;2.80;;;;;;;-2.08;60.12;99170.09;1828350;78;22158;-74
2021/03/07 03:04:42;;;;;;;3.95;2.90;;;;;;;-2.05;60.10;99164.81;1813987;78;20980;-74
2021/03/07 03:07:10;;;;;;;4.30;3.35;;;;;;;-2.04;59.63;99163.48;1828251;78;20956;-73
2021/03/07 03:09:46;;;;;;;3.95;2.75;;;;;;;-2.01;59.72;99150.77;1796318;78;20904;-73
2021/03/07 03:12:16;;;;;;;3.10;2.70;;;;;;;-1.97;59.85;99156.45;1801966;78;20980;-74
2021/03/07 03:14:44;;;;;;;5.03;3.55;;;;;;;-1.97;59.83;99144.61;1816481;78;22579;-74
2021/03/07 03:17:14;;;;;;;4.25;3.27;;;;;;;-1.95;59.90;99140.19;1814020;78;20928;-73
2021/03/07 03:19:44;;;;;;;5.20;3.77;;;;;;;-1.94;59.84;99143.27;1820866;78;20985;-73
2021/03/07 03:22:14;;;;;;;4.25;3.85;;;;;;;-1.95;59.97;99132.30;1825628;78;21605;-73
2021/03/07 03:24:43;;;;;;;6.28;3.80;;;;;;;-1.92;59.82;99130.95;1813424;78;21154;-73
2021/03/07 03:27:14;;;;;;;6.37;4.45;;;;;;;-1.92;59.59;99128.33;1816213;78;21811;-73
2021/03/07 03:29:45;;;;;;;6.85;3.95;;;;;;;-1.90;59.75;99138.39;1828229;78;20934;-73
2021/03/07 03:32:13;;;;;;;4.83;3.08;;;;;;;-1.90;59.64;99131.81;1818267;78;21593;-73
2021/03/07 03:34:47;;;;;;;5.92;3.85;;;;;;;-1.89;59.19;99112.50;1818520;78;21119;-73
2021/03/07 03:37:18;;;;;;;5.08;3.35;;;;;;;-1.89;59.87;99115.14;1807849;78;20921;-73
2021/03/07 03:39:48;;;;;;;5.42;3.35;;;;;;;-1.88;59.71;99115.55;1814024;78;21345;-75
2021/03/07 03:42:16;;;;;;;5.20;3.17;;;;;;;-1.86;59.76;99115.53;1816626;78;20878;-73
2021/03/07 03:44:45;;;;;;;4.03;3.17;;;;;;;-1.86;59.67;99116.44;1820642;78;21024;-74
2021/03/07 03:47:13;;;;;;;4.75;3.30;;;;;;;-1.85;59.44;99115.53;1819289;78;21466;-74
2021/03/07 03:49:58;;;;;;;2.87;2.58;;;;;;;-1.85;59.55;99101.04;1815169;78;20925;-73
2021/03/07 03:52:29;;;;;;;3.85;3.15;;;;;;;-1.85;59.46;99106.31;1807695;78;21366;-73
2021/03/07 03:55:07;;;;;;;3.77;2.95;;;;;;;-1.87;59.73;99084.39;1813690;78;20951;-73
2021/03/07 03:57:42;;;;;;;3.22;2.62;;;;;;;-1.87;59.44;99082.21;1808268;78;20944;-73
2021/03/07 04:00:16;;;;;;;4.37;3.37;;;;;;;-1.87;59.55;99083.08;1812022;78;20976;-74
2021/03/07 04:02:45;;;;;;;5.12;3.70;;;;;;;-1.87;59.25;99087.02;1814058;78;20912;-74
2021/03/07 04:05:18;;;;;;;4.15;2.95;;;;;;;-1.89;59.32;99089.23;1809369;78;21370;-74
2021/03/07 04:07:47;;;;;;;5.08;3.98;;;;;;;-1.87;59.40;99083.08;1827950;78;27149;-74
2021/03/07 04:10:17;;;;;;;4.72;4.08;;;;;;;-1.88;59.13;99082.63;1809908;78;20953;-73
2021/03/07 04:12:48;;;;;;;4.85;3.33;;;;;;;-1.87;59.06;99084.84;1828252;78;20909;-74
2021/03/07 04:15:19;;;;;;;4.90;4.08;;;;;;;-1.85;58.87;99076.02;1816222;78;20980;-74
2021/03/07 04:17:49;;;;;;;4.70;4.00;;;;;;;-1.87;58.51;99076.49;1808198;78;22294;-73
2021/03/07 04:20:19;;;;;;;4.75;3.92;;;;;;;-1.85;58.38;99068.12;1816375;78;21543;-74
2021/03/07 04:22:50;;;;;;;6.47;5.08;;;;;;;-1.84;58.54;99080.41;1809510;78;20945;-74
2021/03/07 04:25:17;;;;;;;4.60;3.90;;;;;;;-1.83;58.26;99069.01;1815409;77;20949;-75
2021/03/07 04:27:50;;;;;;;4.50;3.47;;;;;;;-1.82;57.96;99069.42;1821801;78;21009;-74
2021/03/07 04:30:21;;;;;;;;;;;;;;;-1.81;57.96;99074.27;1831216;78;21621;-77
2021/03/07 04:32:50;;;;;;;5.42;4.53;;;;;;;-1.80;57.88;99083.89;1782315;77;20586;-75
2021/03/07 04:35:19;;;;;;;7.15;4.40;;;;;;;-1.83;57.77;99072.95;1804499;78;21063;-75
2021/03/07 04:37:46;;;;;;;4.70;3.65;;;;;;;-1.80;57.83;99067.22;1822774;77;21074;-74
2021/03/07 04:40:15;;;;;;;4.72;3.65;;;;;;;-1.81;57.71;99066.36;1749179;81;20919;-75
2021/03/07 04:42:43;;;;;;;4.90;3.70;;;;;;;-1.84;58.11;99067.70;1770856;80;22225;-74
2021/03/07 04:45:16;;;;;;;5.33;4.37;;;;;;;-1.85;57.95;99070.76;1752436;80;20989;-74
2021/03/07 04:47:45;;;;;;;5.28;4.22;;;;;;;-1.85;58.00;99070.76;1744129;80;20924;-75
2021/03/07 04:50:13;;;;;;;6.53;5.50;;;;;;;-1.86;57.78;99069.03;1815355;78;21188;-75
2021/03/07 04:52:42;;;;;;;5.45;4.92;;;;;;;-1.86;57.99;99072.98;1812225;78;20881;-75
2021/03/07 04:55:16;;;;;;;5.50;4.35;;;;;;;-1.87;58.13;99085.70;1821683;78;22252;-75
2021/03/07 04:57:44;;;;;;;5.87;4.60;;;;;;;-1.89;58.00;99086.17;1815702;78;20916;-75
2021/03/07 05:00:16;;;;;;;9.73;4.25;;;;;;;-1.91;58.23;99086.60;1809293;78;21060;-75
2021/03/07 05:02:49;;;;;;;4.53;3.85;;;;;;;-1.92;58.54;99092.78;1812032;78;21216;-74
2021/03/07 05:05:17;;;;;;;6.72;4.35;;;;;;;-1.94;58.63;99096.30;1810576;78;20921;-73
2021/03/07 05:07:48;;;;;;;5.90;4.05;;;;;;;-1.96;58.93;99091.50;1824988;77;21456;-74
2021/03/07 05:10:17;;;;;;;8.20;4.33;;;;;;;-1.97;58.95;99098.53;1813654;77;21138;-74
2021/03/07 05:12:45;;;;;;;4.15;3.60;;;;;;;-2.01;58.91;99093.70;1805807;78;21569;-74
2021/03/07 05:15:17;;;;;;;11.50;6.10;;;;;;;-2.02;59.00;99095.03;1824447;78;20905;-73
2021/03/07 05:17:44;;;;;;;5.22;4.72;;;;;;;-2.01;59.35;99084.95;1825263;78;21021;-74
2021/03/07 05:20:15;;;;;;;4.97;4.10;;;;;;;-2.04;58.95;99077.08;1831712;77;21367;-73
2021/03/07 05:22:44;;;;;;;5.83;4.37;;;;;;;-2.03;59.03;99070.48;1825433;78;20985;-74
2021/03/07 05:25:13;;;;;;;6.03;4.67;;;;;;;-2.01;58.94;99074.41;1810695;77;21057;-73
2021/03/07 05:27:44;;;;;;;6.12;4.25;;;;;;;-1.97;58.76;99082.73;1811258;78;20996;-75
2021/03/07 05:30:16;;;;;;;5.03;4.53;;;;;;;-1.94;58.39;99084.03;1814122;77;20900;-74
2021/03/07 05:32:45;;;;;;;6.58;5.03;;;;;;;-1.88;58.33;99074.73;1804583;78;21319;-75
2021/03/07 05:35:21;;;;;;;6.75;5.70;;;;;;;-1.86;57.40;99076.93;1813682;78;21091;-74
2021/03/07 05:37:48;;;;;;;7.62;4.67;;;;;;;-1.79;57.81;99070.30;1823485;78;20985;-76
2021/03/07 05:40:18;;;;;;;5.85;5.25;;;;;;;-1.76;56.95;99084.76;1825758;78;20989;-75
2021/03/07 05:42:49;;;;;;;6.62;4.85;;;;;;;-1.69;56.92;99074.58;1823665;78;20976;-74
2021/03/07 05:45:21;;;;;;;6.65;4.87;;;;;;;-1.62;56.92;99080.23;1804511;78;21199;-76
2021/03/07 05:47:52;;;;;;;5.87;4.40;;;;;;;-1.57;56.01;99087.64;1816097;78;20968;-75
2021/03/07 05:50:24;;;;;;;4.70;4.03;;;;;;;-1.51;55.91;99083.64;1819289;78;21565;-75
2021/03/07 05:52:57;;;;;;;5.65;4.70;;;;;;;-1.46;55.51;99076.55;1825735;78;20941;-76
2021/03/07 05:55:26;;;;;;;6.10;4.62;;;;;;;-1.39;55.71;99080.45;1811864;78;20900;-77
2021/03/07 05:58:00;;;;;;;5.78;4.42;;;;;;;-1.32;55.79;99062.38;1804371;78;21361;-74
2021/03/07 06:00:28;;;;;;;7.05;5.40;;;;;;;-1.29;55.39;99061.03;1813836;78;20926;-75
2021/03/07 06:02:58;;;;;;;7.65;5.47;;;;;;;-1.23;55.30;99060.06;1823755;77;20940;-75
2021/03/07 06:05:26;;;;;;;9.20;5.70;;;;;;;-1.18;54.87;99065.73;1814840;78;21727;-75
2021/03/07 06:07:57;;;;;;;7.22;5.08;;;;;;;-1.13;54.91;99063.91;1820870;77;20986;-75
2021/03/07 06:10:28;;;;;;;7.53;5.53;;;;;;;-1.11;55.09;99063.44;1816142;78;22106;-75
2021/03/07 06:13:02;;;;;;;5.90;4.78;;;;;;;-1.04;54.67;99051.08;1820609;78;21024;-75
2021/03/07 06:15:38;;;;;;;8.45;5.87;;;;;;;-0.96;54.70;99057.13;1822179;78;20937;-76
2021/03/07 06:18:21;;;;;;;8.15;5.87;;;;;;;-0.92;54.81;99053.99;1828321;78;21044;-75
2021/03/07 06:20:52;;;;;;;7.00;5.50;;;;;;;-0.85;54.54;99045.12;1824721;78;20909;-76
2021/03/07 06:23:37;;;;;;;7.12;5.33;;;;;;;-0.75;54.29;99052.47;1814764;78;21365;-76
2021/03/07 06:26:10;;;;;;;8.43;5.40;;;;;;;-0.71;54.17;99046.23;1813588;78;20965;-78
2021/03/07 06:28:37;;;;;;;7.25;5.80;;;;;;;-0.63;53.98;99052.73;1806943;78;21633;-75
2021/03/07 06:31:30;;;;;;;6.42;4.87;;;;;;;-0.56;53.90;99050.45;1825943;78;21048;-75
2021/03/07 06:34:05;;;;;;;7.20;5.53;;;;;;;-0.47;53.37;99053.38;1827004;77;20945;-76
2021/03/07 06:36:37;;;;;;;6.62;5.92;;;;;;;-0.42;53.26;99035.28;1818556;77;21370;-76
2021/03/07 06:39:10;;;;;;;5.55;4.80;;;;;;;-0.32;52.97;99044.39;1815642;77;20881;-77
2021/03/07 06:41:40;;;;;;;6.47;4.70;;;;;;;-0.24;52.66;99037.22;1813592;78;21007;-77
2021/03/07 06:44:14;;;;;;;6.87;4.90;;;;;;;-0.14;52.79;99046.75;1825585;78;21830;-78
2021/03/07 06:46:47;;;;;;;5.62;4.90;;;;;;;-0.10;53.01;99040.51;1819853;78;20988;-78
2021/03/07 06:49:28;;;;;;;8.13;6.20;;;;;;;-0.05;52.69;99033.41;1803475;78;21866;-77
2021/03/07 06:52:16;;;;;;;7.72;5.47;;;;;;;-0.01;52.47;99043.00;1821278;78;21167;-77
2021/03/07 06:55:11;;;;;;;7.00;5.92;;;;;;;0.08;52.57;99029.22;1814278;78;21437;-78
2021/03/07 06:57:39;;;;;;;6.67;5.23;;;;;;;0.15;52.08;99029.55;1819286;78;21594;-78
2021/03/07 07:00:15;;;;;;;8.15;5.65;;;;;;;0.25;51.89;99031.12;1817354;77;21000;-77
2021/03/07 07:03:07;;;;;;;6.75;4.83;;;;;;;0.30;51.94;99041.18;1817464;78;21415;-76
2021/03/07 07:05:46;;;;;;;6.45;4.95;;;;;;;0.40;52.00;99029.12;1811274;78;20944;-78
2021/03/07 07:08:18;;;;;;;7.33;5.65;;;;;;;0.48;52.20;99023.24;1821377;78;20996;-75
2021/03/07 07:11:06;;;;;;;5.85;5.20;;;;;;;0.52;51.70;99013.02;1824884;78;21013;-77
2021/03/07 07:13:52;;;;;;;5.70;5.12;;;;;;;0.58;51.76;99012.91;1813562;78;20988;-77
2021/03/07 07:16:23;;;;;;;7.00;5.62;;;;;;;0.64;51.72;99009.28;1809867;78;21193;-75
2021/03/07 07:18:52;;;;;;;6.67;5.47;;;;;;;0.64;51.75;99019.86;1808979;78;20991;-76
2021/03/07 07:21:20;;;;;;;10.32;5.87;;;;;;;0.62;51.31;99008.45;1805708;78;21607;-77
2021/03/07 07:23:49;;;;;;;6.75;5.30;;;;;;;0.66;51.17;99008.36;1811465;78;21001;-76
2021/03/07 07:26:17;;;;;;;7.83;5.97;;;;;;;0.72;51.30;99012.64;1813165;78;21568;-78
2021/03/07 07:28:45;;;;;;;6.47;5.72;;;;;;;0.78;51.27;99001.95;1818171;78;21355;-77
2021/03/07 07:31:24;;;;;;;7.05;5.72;;;;;;;0.87;50.90;99004.87;1776302;77;21072;-81
2021/03/07 07:33:59;;;;;;;7.70;5.95;;;;;;;0.94;51.18;99005.14;1815705;78;21051;-76
2021/03/07 07:36:48;;;;;;;7.72;5.95;;;;;;;1.00;50.68;98997.08;1745697;81;21056;-76
2021/03/07 07:39:24;;;;;;;7.47;6.72;;;;;;;1.13;51.18;99007.41;1818522;78;20985;-77
2021/03/07 07:41:53;;;;;;;7.67;5.72;;;;;;;1.19;51.09;98999.34;1816538;78;21436;-77
2021/03/07 07:44:35;;;;;;;8.40;6.70;;;;;;;1.30;50.89;99010.56;1823559;78;21023;-78
2021/03/07 07:47:07;;;;;;;8.23;6.78;;;;;;;1.35;50.95;99003.37;1725075;81;21212;-77
2021/03/07 07:49:48;;;;;;;7.00;6.30;;;;;;;1.41;50.48;98995.30;1727594;81;21792;-76
2021/03/07 07:52:31;;;;;;;9.95;7.00;;;;;;;1.49;50.58;99004.86;1754856;81;21020;-78
2021/03/07 07:55:03;;;;;;;7.85;6.58;;;;;;;1.58;50.66;98996.71;1828556;77;22262;-77
2021/03/07 07:57:53;;;;;;;8.28;6.58;;;;;;;1.65;50.51;98992.99;1816311;77;21564;-76
2021/03/07 08:00:28;;;;;;;6.03;5.42;;;;;;;1.69;49.73;98980.54;1815907;78;21155;-77
2021/03/07 08:03:01;;;;;;;7.55;6.35;;;;;;;1.74;50.42;98980.86;1806391;78;21044;-77
2021/03/07 08:05:43;;;;;;;7.95;6.28;;;;;;;1.74;49.70;98965.44;1811010;78;20912;-79
2021/03/07 08:08:12;;;;;;;8.48;7.03;;;;;;;1.79;49.71;98965.72;1816580;78;21364;-79
2021/03/07 08:10:49;;;;;;;7.20;6.45;;;;;;;1.88;49.81;98957.15;1809093;78;21266;-76
2021/03/07 08:13:36;;;;;;;6.58;5.50;;;;;;;1.97;49.35;98951.59;1818975;78;21020;-80
2021/03/07 08:16:04;;;;;;;6.28;5.42;;;;;;;2.05;48.95;98952.28;1808084;78;21087;-80
2021/03/07 08:18:55;;;;;;;7.20;6.45;;;;;;;2.16;48.96;98947.57;1818429;78;20928;-78
2021/03/07 08:21:23;;;;;;;7.55;6.75;;;;;;;2.21;48.86;98942.15;1804214;78;21347;-78
2021/03/07 08:24:03;;;;;;;6.87;6.15;;;;;;;2.32;49.10;98947.17;1804807;78;21116;-77
2021/03/07 08:26:50;;;;;;;7.45;5.00;;;;;;;2.40;48.16;98928.37;1824082;78;21065;-80
2021/03/07 08:29:41;;;;;;;6.87;6.12;;;;;;;2.48;47.86;98925.94;1827651;77;21008;-78
2021/03/07 08:32:32;;;;;;;6.20;5.47;;;;;;;2.57;47.96;98923.48;1792066;78;21211;-78
2021/03/07 08:35:22;;;;;;;5.90;5.20;;;;;;;2.65;48.26;98911.30;1819845;78;20976;-79
2021/03/07 08:38:15;;;;;;;6.65;6.05;;;;;;;2.77;46.93;98922.89;1816580;78;21008;-78
2021/03/07 08:40:56;;;;;;;7.25;5.80;;;;;;;2.85;47.29;98918.25;1805314;78;20979;-78
2021/03/07 08:43:31;;;;;;;6.65;5.70;;;;;;;3.00;47.37;98905.44;1772614;78;21004;-77
2021/03/07 08:46:04;;;;;;;6.03;5.35;;;;;;;3.12;47.03;98902.38;1812878;78;21162;-81
2021/03/07 08:48:35;;;;;;;6.83;6.17;;;;;;;3.22;47.19;98893.22;1826437;78;21569;-79
2021/03/07 08:51:06;;;;;;;8.55;6.03;;;;;;;3.36;47.25;98899.43;1814684;78;21035;-78
2021/03/07 08:53:39;;;;;;;7.60;6.20;;;;;;;3.48;46.80;98893.30;1802848;78;21759;-78
2021/03/07 08:56:09;;;;;;;9.25;5.22;;;;;;;3.56;45.40;98894.80;1813213;78;21060;-80
2021/03/07 08:58:38;;;;;;;5.47;4.97;;;;;;;3.66;45.48;98881.19;1809647;78;20917;-78
2021/03/07 09:01:09;;;;;;;7.12;5.55;;;;;;;3.67;44.86;98881.61;1814895;77;21788;-77
2021/03/07 09:03:40;;;;;;;6.53;5.45;;;;;;;3.71;45.31;98887.24;1760708;78;21502;-77
2021/03/07 09:06:11;;;;;;;7.17;5.78;;;;;;;3.74;44.80;98884.48;1822676;78;20938;-78
2021/03/07 09:08:44;;;;;;;6.12;5.53;;;;;;;3.78;44.91;98884.77;1815940;78;21012;-77
2021/03/07 09:11:13;;;;;;;5.80;5.10;;;;;;;3.80;44.45;98868.33;1826411;77;21560;-77
2021/03/07 09:13:50;;;;;;;4.95;4.15;;;;;;;3.86;44.33;98861.45;1824632;78;21192;-79
2021/03/07 09:16:18;;;;;;;6.80;5.03;;;;;;;3.89;44.48;98857.36;1828542;78;21592;-76
2021/03/07 09:18:50;;;;;;;5.85;4.80;;;;;;;3.95;44.44;98846.98;1828418;78;20905;-77
2021/03/07 09:21:19;;;;;;;6.70;4.70;;;;;;;3.90;44.30;98842.30;1818207;78;21030;-80
2021/03/07 09:23:50;;;;;;;6.08;4.40;;;;;;;3.87;44.49;98851.23;1820935;78;20985;-77
2021/03/07 09:26:22;;;;;;;4.47;4.08;;;;;;;3.84;44.75;98845.17;1826642;78;21788;-78
2021/03/07 09:28:54;;;;;;;5.65;5.10;;;;;;;3.85;44.52;98833.16;1825149;78;21031;-78
2021/03/07 09:31:34;;;;;;;5.03;4.53;;;;;;;3.91;44.50;98827.63;1827909;78;21112;-78
2021/03/07 09:34:04;;;;;;;4.92;4.10;;;;;;;3.85;43.77;98814.56;1822740;78;20996;-76
2021/03/07 09:36:41;;;;;;;6.60;4.00;;;;;;;3.84;43.84;98831.41;1810087;78;21571;-76
2021/03/07 09:39:15;;;;;;;5.90;4.37;;;;;;;3.78;43.33;98807.27;1807821;78;22341;-77
2021/03/07 09:41:47;;;;;;;5.55;4.70;;;;;;;3.80;44.65;98807.22;1822953;78;21015;-77
2021/03/07 09:44:21;;;;;;;7.40;5.08;;;;;;;3.77;44.42;98816.62;1719250;81;21055;-76
2021/03/07 09:46:52;;;;;;;5.40;4.33;;;;;;;3.75;44.90;98807.38;1756492;80;21077;-77
2021/03/07 09:49:25;;;;;;;4.72;4.25;;;;;;;3.79;44.23;98806.33;1819456;78;22247;-76
2021/03/07 09:51:54;;;;;;;5.22;4.70;;;;;;;3.77;44.53;98794.04;1827911;78;22600;-76
2021/03/07 09:54:25;;;;;;;6.15;3.98;;;;;;;3.73;43.77;98783.10;1828037;78;20996;-77
2021/03/07 09:56:58;;;;;;;5.40;4.70;;;;;;;3.71;44.17;98803.08;1819779;78;20957;-76
2021/03/07 09:59:34;;;;;;;5.92;4.22;;;;;;;3.58;44.17;98798.66;1825370;78;21048;-77
2021/03/07 10:02:04;;;;;;;5.97;5.30;;;;;;;3.56;44.28;98799.63;1813504;78;20991;-77
2021/03/07 10:04:46;;;;;;;8.93;5.08;;;;;;;3.50;45.58;98795.84;1786286;77;21189;-76
2021/03/07 10:07:22;;;;;;;4.78;3.92;;;;;;;3.48;45.63;98795.90;1820774;78;20975;-76
2021/03/07 10:10:23;;;;;;;5.80;4.58;;;;;;;3.56;45.06;98795.64;1827311;78;21481;-76
2021/03/07 10:12:58;;;;;;;6.00;4.05;;;;;;;3.56;45.39;98791.22;1821020;77;21506;-77
2021/03/07 10:15:35;;;;;;;6.75;5.37;;;;;;;3.65;45.17;98793.14;1809908;78;20995;-79
2021/03/07 10:18:18;;;;;;;5.62;4.47;;;;;;;3.70;46.00;98791.18;1822717;78;21816;-77
2021/03/07 10:20:50;;;;;;;5.45;3.90;;;;;;;3.75;45.32;98790.55;1828285;78;21047;-77
2021/03/07 10:23:19;;;;;;;7.35;5.47;;;;;;;3.79;45.60;98790.39;1819201;78;21020;-76
2021/03/07 10:25:47;;;;;;;5.92;4.40;;;;;;;3.87;46.16;98787.46;1815845;78;20933;-80
2021/03/07 10:28:30;;;;;;;4.53;4.00;;;;;;;3.92;45.24;98790.81;1811189;77;20912;-77
2021/03/07 10:31:12;;;;;;;5.12;4.55;;;;;;;3.95;44.18;98773.90;1814275;78;22350;-77
2021/03/07 10:33:42;;;;;;;5.20;4.70;;;;;;;3.99;44.37;98780.84;1824588;77;20997;-78
2021/03/07 10:36:13;;;;;;;15.60;5.08;;;;;;;4.04;43.92;98778.02;1817965;78;20901;-77
2021/03/07 10:38:45;;;;;;;5.87;4.75;;;;;;;4.04;43.94;98766.06;1813917;78;20952;-77
2021/03/07 10:41:31;;;;;;;5.20;4.53;;;;;;;4.09;44.29;98763.63;1811260;78;21005;-79
2021/03/07 10:44:05;;;;;;;6.10;4.25;;;;;;;4.11;43.20;98762.23;1828427;78;22196;-80
2021/03/07 10:46:39;;;;;;;6.33;4.90;;;;;;;4.13;44.03;98748.41;1818881;78;21498;-78
2021/03/07 10:49:10;;;;;;;5.87;5.03;;;;;;;4.17;43.79;98760.67;1812426;77;20947;-76
2021/03/07 10:51:40;;;;;;;11.60;5.90;;;;;;;4.18;43.63;98760.20;1817674;78;21162;-77
2021/03/07 10:54:09;;;;;;;5.70;4.33;;;;;;;4.15;44.14;98747.91;1824430;78;21139;-76
2021/03/07 10:56:38;;;;;;;5.95;5.20;;;;;;;4.15;44.36;98745.26;1809411;78;21036;-76
2021/03/07 10:59:09;;;;;;;8.95;5.10;;;;;;;4.15;44.37;98731.48;1820593;78;21013;-76
2021/03/07 11:01:39;;;;;;;6.22;4.87;;;;;;;4.17;44.70;98727.45;1805472;78;20943;-77
2021/03/07 11:04:09;;;;;;;6.75;5.20;;;;;;;4.23;44.18;98728.55;1750799;80;21066;-77
2021/03/07 11:06:38;;;;;;;5.45;4.53;;;;;;;4.27;45.04;98723.52;1764698;81;20921;-75
2021/03/07 11:09:08;;;;;;;5.10;4.58;;;;;;;4.21;42.55;98716.22;1744585;81;21615;-76
2021/03/07 11:11:41;;;;;;;7.37;4.67;;;;;;;4.23;44.15;98701.95;1823999;78;21048;-76
2021/03/07 11:14:09;;;;;;;5.33;4.83;;;;;;;4.27;42.67;98712.89;1816081;78;20910;-77
2021/03/07 11:16:37;;;;;;;5.33;4.55;;;;;;;4.27;43.31;98698.27;1822517;78;20906;-77
2021/03/07 11:19:08;;;;;;;5.90;5.03;;;;;;;4.27;41.98;98695.61;1781247;78;20925;-77
2021/03/07 11:21:40;;;;;;;7.53;5.42;;;;;;;4.30;43.69;98685.29;1805788;78;22265;-74
2021/03/07 11:24:15;;;;;;;6.37;4.42;;;;;;;4.32;43.52;98688.75;1828686;78;21056;-76
2021/03/07 11:26:45;;;;;;;7.12;5.00;;;;;;;4.29;42.86;98669.81;1814974;77;21119;-76
2021/03/07 11:29:17;;;;;;;6.80;4.72;;;;;;;4.29;43.69;98682.25;1782911;78;21354;-76
2021/03/07 11:31:47;;;;;;;6.20;5.58;;;;;;;4.32;44.92;98667.03;1803376;78;21354;-77
2021/03/07 11:34:21;;;;;;;8.40;6.42;;;;;;;4.30;42.88;98659.59;1823318;77;21092;-76
2021/03/07 11:36:53;;;;;;;5.55;5.00;;;;;;;4.32;44.75;98657.72;1813044;78;21031;-78
2021/03/07 11:39:23;;;;;;;7.33;5.72;;;;;;;4.34;44.36;98649.20;1817477;78;20973;-76
2021/03/07 11:41:51;;;;;;;6.37;4.53;;;;;;;4.36;44.03;98646.96;1814950;78;21494;-77
2021/03/07 11:44:21;;;;;;;5.62;4.67;;;;;;;4.38;43.63;98633.12;1815510;78;21033;-78
2021/03/07 11:46:52;;;;;;;7.90;5.47;;;;;;;4.41;44.12;98626.36;1816494;78;22219;-76
2021/03/07 11:49:25;;;;;;;5.67;5.12;;;;;;;4.42;44.59;98626.77;1820477;77;21004;-77
2021/03/07 11:51:59;;;;;;;7.15;5.62;;;;;;;4.44;43.84;98622.25;1802242;77;21478;-78
2021/03/07 11:54:29;;;;;;;5.17;4.67;;;;;;;4.44;43.97;98622.25;1819186;77;20908;-77
2021/03/07 11:56:58;;;;;;;5.40;4.83;;;;;;;4.48;44.67;98614.55;1807610;78;20967;-78
2021/03/07 11:59:28;;;;;;;5.58;4.95;;;;;;;4.49;44.21;98612.27;1754847;81;21336;-76
2021/03/07 12:01:56;;;;;;;7.30;4.97;;;;;;;4.51;44.32;98609.11;1824601;78;20893;-77